Time;durP1;ratioP1;P1;durP2;ratioP2;P2;SDS_P1;SDS_P2;PMS_P1;PMS_P2;Temp;Humidity;BMP_temperature;BMP_pressure;BME280_temperature;BME280_humidity;BME280_pressure;Samples;Min_cycle;Max_cycle;Signal;HPM_P1;HPM_P2
2022/10/11 00:01:50;;;;;;;10.98;9.15;;;;;;;17.59;54.81;100378.34;5093368;28;20056;-81
2022/10/11 00:04:15;;;;;;;13.98;9.70;;;;;;;16.62;54.73;100222.09;5093465;28;20027;-81
2022/10/11 00:06:42;;;;;;;14.98;8.80;;;;;;;16.12;55.01;100138.03;5093001;28;20027;-81
2022/10/11 00:09:10;;;;;;;14.52;8.52;;;;;;;17.52;55.14;100382.84;5093337;28;20085;-81
2022/10/11 00:11:36;;;;;;;11.48;9.50;;;;;;;17.15;55.11;100324.47;5092036;28;20028;-81
2022/10/11 00:14:03;;;;;;;12.35;9.02;;;;;;;17.22;55.28;100329.00;5093549;28;20488;-81
2022/10/11 00:16:28;;;;;;;11.93;8.98;;;;;;;16.78;55.41;100279.59;5091975;28;20097;-81
2022/10/11 00:18:54;;;;;;;11.85;9.27;;;;;;;17.38;55.65;100371.31;5091950;28;20477;-82
2022/10/11 00:21:20;;;;;;;10.68;8.75;;;;;;;17.05;55.50;100326.66;5091625;28;20024;-82
2022/10/11 00:23:46;;;;;;;12.55;9.73;;;;;;;17.07;55.60;100315.78;5093130;28;20047;-81
2022/10/11 00:26:11;;;;;;;12.50;9.55;;;;;;;16.92;55.67;100291.94;5093143;28;20052;-81
2022/10/11 00:28:38;;;;;;;12.48;9.05;;;;;;;16.59;55.87;100230.50;5091957;28;20098;-81
2022/10/11 00:31:12;;;;;;;10.77;9.52;;;;;;;17.27;56.04;100343.38;5093162;28;20066;-81
2022/10/11 00:33:38;;;;;;;12.50;9.07;;;;;;;17.18;56.01;100328.59;5093081;28;20024;-81
2022/10/11 00:36:04;;;;;;;10.68;8.52;;;;;;;17.34;55.59;100357.56;5091740;28;20024;-81
2022/10/11 00:38:30;;;;;;;11.77;8.95;;;;;;;17.37;55.78;100354.50;5092950;28;20068;-81
2022/10/11 00:40:55;;;;;;;9.65;8.52;;;;;;;16.77;55.79;100253.94;5091581;28;20113;-81
2022/10/11 00:43:26;;;;;;;10.32;8.93;;;;;;;16.51;56.20;100220.81;5092945;28;20024;-81
2022/10/11 00:45:54;;;;;;;10.80;8.53;;;;;;;17.34;55.91;100354.06;5091851;28;20020;-81
2022/10/11 00:48:30;;;;;;;14.95;9.48;;;;;;;16.82;55.89;100270.16;5091728;28;21125;-81
2022/10/11 00:50:58;;;;;;;13.02;9.23;;;;;;;17.34;55.83;100349.56;5092819;28;20024;-81
2022/10/11 00:53:24;;;;;;;10.40;8.70;;;;;;;17.35;55.90;100361.88;5092604;28;20027;-81
2022/10/11 00:56:05;;;;;;;10.88;9.27;;;;;;;16.57;56.01;100251.19;5092555;28;20024;-81
2022/10/11 00:58:34;;;;;;;11.05;8.70;;;;;;;16.96;55.92;100321.72;5092499;28;20102;-81
2022/10/11 01:01:00;;;;;;;10.93;8.10;;;;;;;16.45;56.35;100223.47;5092120;28;20138;-81
2022/10/11 01:03:27;;;;;;;11.52;9.55;;;;;;;17.28;56.56;100354.88;5092303;28;20047;-81
2022/10/11 01:05:54;;;;;;;15.02;9.25;;;;;;;17.25;56.61;100347.28;5092555;28;20055;-81
2022/10/11 01:08:19;;;;;;;13.18;9.38;;;;;;;16.79;56.27;100271.41;5092582;28;20024;-82
2022/10/11 01:10:45;;;;;;;13.50;9.40;;;;;;;16.53;55.89;100234.78;5092344;28;20027;-81
2022/10/11 01:13:35;;;;;;;10.32;9.20;;;;;;;17.11;55.74;100339.25;5092303;28;20029;-82
2022/10/11 01:16:12;;;;;;;12.60;9.60;;;;;;;17.05;55.63;100344.53;5092161;28;20027;-81
2022/10/11 01:19:09;;;;;;;11.38;9.52;;;;;;;17.01;55.58;100340.63;5091416;28;20027;-81
2022/10/11 01:22:13;;;;;;;12.20;9.75;;;;;;;16.59;55.56;100275.00;5092132;28;20024;-81
2022/10/11 01:24:51;;;;;;;14.23;10.88;;;;;;;16.90;55.38;100336.69;5088738;28;20428;-82
2022/10/11 01:27:40;;;;;;;11.20;9.80;;;;;;;16.67;55.35;100298.84;5091980;28;20028;-81
2022/10/11 01:30:32;;;;;;;12.90;9.85;;;;;;;16.83;55.31;100333.16;5092060;28;20020;-81
2022/10/11 01:33:12;;;;;;;13.87;9.50;;;;;;;16.82;55.09;100320.84;5090680;28;20432;-81
2022/10/11 01:36:13;;;;;;;10.43;8.98;;;;;;;16.77;54.78;100323.28;5090462;28;20802;-81
2022/10/11 01:38:56;;;;;;;14.43;9.43;;;;;;;16.63;55.04;100311.72;5090414;28;20022;-81
2022/10/11 01:41:26;;;;;;;13.23;9.13;;;;;;;16.75;54.57;100314.66;5090438;28;20028;-81
2022/10/11 01:43:58;;;;;;;11.25;8.77;;;;;;;16.73;54.82;100330.03;5091892;28;20404;-81
2022/10/11 01:46:25;;;;;;;14.85;9.95;;;;;;;16.69;54.54;100310.94;5091771;28;20047;-81
2022/10/11 01:48:53;;;;;;;15.90;10.20;;;;;;;16.70;54.54;100312.59;5091764;28;20031;-81
2022/10/11 01:51:22;;;;;;;12.60;9.95;;;;;;;16.35;54.71;100265.63;5091640;28;20028;-81
2022/10/11 01:54:05;;;;;;;13.77;10.32;;;;;;;16.63;54.58;100306.38;5091494;28;20052;-81
2022/10/11 01:57:08;;;;;;;12.70;10.07;;;;;;;16.56;54.34;100310.03;5090313;28;20020;-81
2022/10/11 01:59:33;;;;;;;16.20;11.45;;;;;;;16.53;54.67;100309.41;5090439;28;20020;-81
2022/10/11 02:02:10;;;;;;;11.45;9.68;;;;;;;16.50;54.04;100306.31;5091507;28;20121;-81
2022/10/11 02:04:47;;;;;;;12.45;9.77;;;;;;;16.23;54.06;100284.03;5091782;28;20070;-81
2022/10/11 02:07:15;;;;;;;13.20;9.75;;;;;;;16.37;54.29;100316.91;5091591;28;20028;-82
2022/10/11 02:10:02;;;;;;;11.10;9.85;;;;;;;15.47;54.32;100192.53;5091743;28;20024;-81
2022/10/11 02:12:42;;;;;;;12.55;10.27;;;;;;;15.75;54.49;100240.50;5091454;28;20024;-81
2022/10/11 02:15:09;;;;;;;12.77;10.48;;;;;;;16.05;54.68;100315.66;5091392;28;20015;-81
2022/10/11 02:17:48;;;;;;;14.30;10.43;;;;;;;15.73;54.60;100283.28;5091389;28;20016;-81
2022/10/11 02:20:18;;;;;;;12.75;10.30;;;;;;;15.73;54.85;100296.59;5091465;28;20024;-81
2022/10/11 02:22:47;;;;;;;11.93;10.25;;;;;;;16.02;55.11;100311.56;5091532;28;20058;-81
2022/10/11 02:25:20;;;;;;;12.13;10.32;;;;;;;15.93;54.46;100306.56;5091292;28;20024;-81
2022/10/11 02:27:47;;;;;;;13.10;9.50;;;;;;;14.94;54.68;100152.22;5091228;28;20024;-81
2022/10/11 02:30:14;;;;;;;18.27;11.00;;;;;;;16.01;54.64;100314.41;5094976;28;20024;-81
2022/10/11 02:32:42;;;;;;;15.15;10.73;;;;;;;15.94;54.85;100316.22;5112958;28;20050;-81
2022/10/11 02:35:10;;;;;;;14.02;9.65;;;;;;;15.78;54.66;100306.66;5110654;28;20051;-81
2022/10/11 02:37:40;;;;;;;12.77;10.02;;;;;;;15.47;54.90;100251.06;5095202;28;20023;-81
2022/10/11 02:40:10;;;;;;;17.20;10.80;;;;;;;15.78;55.06;100315.47;5095163;28;20535;-81
2022/10/11 02:42:43;;;;;;;16.35;11.13;;;;;;;15.62;55.07;100278.50;5094257;28;20059;-81
2022/10/11 02:45:17;;;;;;;14.98;10.23;;;;;;;15.31;55.31;100257.50;5094060;28;20094;-81
2022/10/11 02:47:43;;;;;;;13.57;10.05;;;;;;;15.26;54.79;100241.28;5095309;28;20080;-81
2022/10/11 02:50:13;;;;;;;13.90;9.85;;;;;;;15.71;54.77;100319.09;5095138;28;20035;-81
2022/10/11 02:52:39;;;;;;;12.32;9.82;;;;;;;15.64;54.92;100319.06;5093672;28;20028;-81
2022/10/11 02:55:05;;;;;;;16.95;10.23;;;;;;;15.18;55.23;100271.50;5093945;28;20028;-81
2022/10/11 02:57:31;;;;;;;15.77;10.68;;;;;;;14.70;55.26;100213.69;5093839;28;20028;-81
2022/10/11 02:59:56;;;;;;;15.40;10.63;;;;;;;15.01;55.55;100277.25;5095205;28;20024;-81
2022/10/11 03:02:21;;;;;;;13.15;11.48;;;;;;;14.74;55.57;100242.38;5116026;28;20043;-81
2022/10/11 03:04:47;;;;;;;14.02;10.90;;;;;;;14.28;55.68;100178.06;5115907;28;20097;-80
2022/10/11 03:07:13;;;;;;;13.63;11.57;;;;;;;15.07;56.13;100321.72;5097326;28;20031;-81
2022/10/11 03:09:38;;;;;;;14.68;10.63;;;;;;;14.94;56.08;100330.38;5094601;28;20024;-81
2022/10/11 03:12:04;;;;;;;17.33;11.70;;;;;;;13.66;56.11;100101.47;5094903;28;20518;-81
2022/10/11 03:14:29;;;;;;;18.20;11.80;;;;;;;14.67;55.89;100262.75;5094858;28;20562;-81
2022/10/11 03:16:55;;;;;;;16.27;11.35;;;;;;;14.68;55.82;100279.50;5094488;28;20034;-81
2022/10/11 03:19:20;;;;;;;16.25;11.48;;;;;;;14.87;56.18;100316.16;5094682;28;20107;-81
2022/10/11 03:21:46;;;;;;;16.85;11.43;;;;;;;14.53;56.10;100272.41;5093340;28;20027;-81
2022/10/11 03:24:11;;;;;;;15.70;10.00;;;;;;;14.61;56.07;100274.94;5094377;28;20069;-81
2022/10/11 03:26:37;;;;;;;16.67;11.90;;;;;;;14.13;56.12;100207.28;5094058;28;20024;-81
2022/10/11 03:29:02;;;;;;;14.57;10.93;;;;;;;14.27;55.92;100213.59;5094021;28;20518;-82
2022/10/11 03:31:27;;;;;;;13.75;10.90;;;;;;;14.66;56.10;100289.50;5094281;28;20048;-81
2022/10/11 03:33:53;;;;;;;15.88;10.90;;;;;;;14.46;56.19;100260.84;5094259;28;20046;-81
2022/10/11 03:36:18;;;;;;;13.27;10.85;;;;;;;14.74;55.93;100316.81;5092827;28;20058;-81
2022/10/11 03:38:44;;;;;;;12.60;10.13;;;;;;;14.00;56.13;100201.78;5092928;28;20028;-81
2022/10/11 03:41:09;;;;;;;15.13;10.68;;;;;;;14.33;56.16;100271.28;5092980;28;20062;-81
2022/10/11 03:43:35;;;;;;;15.15;10.32;;;;;;;14.23;56.23;100241.53;5094268;28;20020;-81
2022/10/11 03:46:00;;;;;;;13.32;10.32;;;;;;;14.25;56.12;100255.44;5094058;28;20034;-81
2022/10/11 03:48:26;;;;;;;15.00;10.57;;;;;;;14.13;56.08;100238.34;5092655;28;20400;-81
2022/10/11 03:50:51;;;;;;;19.75;12.07;;;;;;;13.18;56.03;100126.69;5092539;28;20099;-81
2022/10/11 03:53:17;;;;;;;17.02;12.43;;;;;;;14.45;56.22;100307.03;5092578;28;21298;-81
2022/10/11 03:55:43;;;;;;;20.45;14.77;;;;;;;14.25;56.05;100268.72;5093522;28;20031;-81
2022/10/11 03:58:08;;;;;;;20.75;15.32;;;;;;;14.56;56.12;100308.41;5092940;28;20022;-81
2022/10/11 04:00:34;;;;;;;21.55;15.35;;;;;;;14.54;56.34;100313.91;5092300;28;20020;-81
2022/10/11 04:03:02;;;;;;;20.05;15.35;;;;;;;14.17;56.21;100227.16;5093839;28;20020;-81
2022/10/11 04:05:28;;;;;;;19.52;13.88;;;;;;;14.25;56.35;100255.44;5092268;28;20553;-81
2022/10/11 04:07:53;;;;;;;20.85;14.43;;;;;;;13.78;56.31;100178.81;5092191;28;20032;-81
2022/10/11 04:10:19;;;;;;;18.23;13.40;;;;;;;13.85;56.21;100195.66;5092278;28;20027;-81
2022/10/11 04:12:45;;;;;;;17.40;13.70;;;;;;;13.71;56.32;100170.75;5093442;28;20075;-81
2022/10/11 04:15:13;;;;;;;21.25;14.20;;;;;;;14.00;56.50;100212.41;5093359;28;20085;-81
2022/10/11 04:17:39;;;;;;;17.33;13.77;;;;;;;13.98;56.47;100220.53;5091978;28;20028;-81
2022/10/11 04:20:06;;;;;;;17.98;14.40;;;;;;;14.01;56.69;100240.59;5093439;28;20094;-81
2022/10/11 04:22:32;;;;;;;23.42;14.15;;;;;;;13.77;56.59;100180.63;5093268;28;20095;-81
2022/10/11 04:24:57;;;;;;;17.13;15.20;;;;;;;14.45;56.71;100291.09;5093491;28;20107;-81
2022/10/11 04:27:25;;;;;;;19.27;14.98;;;;;;;13.95;56.70;100239.50;5093221;28;20081;-81
2022/10/11 04:29:51;;;;;;;23.67;16.63;;;;;;;14.22;56.49;100255.81;5091759;28;20012;-81
2022/10/11 04:32:16;;;;;;;26.60;17.52;;;;;;;14.22;56.54;100234.56;5091551;28;20489;-81
2022/10/11 04:34:42;;;;;;;22.92;20.45;;;;;;;13.92;55.87;100170.84;5091675;28;20020;-81
2022/10/11 04:37:07;;;;;;;24.13;18.30;;;;;;;13.93;55.87;100167.19;5092820;28;20043;-81
2022/10/11 04:39:32;;;;;;;26.67;19.13;;;;;;;14.56;55.95;100265.88;5091535;28;20059;-81
2022/10/11 04:41:58;;;;;;;23.27;16.58;;;;;;;13.79;55.99;100144.13;5091588;28;20024;-81
2022/10/11 04:44:23;;;;;;;24.30;15.48;;;;;;;14.24;55.99;100217.44;5092793;28;20024;-81
2022/10/11 04:46:49;;;;;;;20.63;15.52;;;;;;;14.38;55.88;100238.84;5092978;28;20023;-81
2022/10/11 04:49:14;;;;;;;21.08;14.25;;;;;;;14.73;55.83;100303.69;5092989;28;20424;-81
2022/10/11 04:51:40;;;;;;;17.80;13.07;;;;;;;14.30;55.88;100239.78;5092768;28;20032;-81
2022/10/11 04:54:05;;;;;;;23.67;14.40;;;;;;;14.76;55.82;100312.13;5092422;28;20039;-81
2022/10/11 04:56:30;;;;;;;20.10;13.57;;;;;;;14.27;56.02;100235.66;5092714;28;20024;-81
2022/10/11 04:58:56;;;;;;;22.30;14.75;;;;;;;14.58;56.01;100279.81;5091216;28;20020;-81
2022/10/11 05:01:21;;;;;;;19.58;13.82;;;;;;;14.48;56.17;100261.50;5092333;28;20071;-81
2022/10/11 05:03:47;;;;;;;19.27;14.25;;;;;;;13.98;55.78;100194.00;5092900;28;20088;-81
2022/10/11 05:06:12;;;;;;;16.88;12.27;;;;;;;13.92;55.90;100167.34;5092746;28;20024;-81
2022/10/11 05:08:37;;;;;;;18.40;13.05;;;;;;;14.04;55.96;100210.19;5092617;28;20024;-81
2022/10/11 05:11:06;;;;;;;18.30;13.07;;;;;;;14.54;55.96;100279.34;5092765;28;20023;-81
2022/10/11 05:13:33;;;;;;;16.70;12.45;;;;;;;14.75;55.89;100305.16;5092504;28;20035;-81
2022/10/11 05:15:59;;;;;;;18.70;12.70;;;;;;;14.74;56.14;100335.41;5091290;28;20063;-81
2022/10/11 05:18:25;;;;;;;23.48;14.00;;;;;;;14.21;55.96;100247.03;5091649;28;20016;-81
2022/10/11 05:21:13;;;;;;;21.85;14.07;;;;;;;14.37;56.15;100246.00;5091486;28;20016;-81
2022/10/11 05:23:38;;;;;;;17.38;14.55;;;;;;;14.19;56.09;100233.09;5092674;28;20020;-81
2022/10/11 05:26:04;;;;;;;23.42;14.55;;;;;;;14.74;56.04;100311.50;5092075;28;20091;-81
2022/10/11 05:28:29;;;;;;;18.63;13.80;;;;;;;14.18;55.93;100196.09;5091990;28;20420;-81
2022/10/11 05:30:55;;;;;;;22.13;13.13;;;;;;;13.97;55.88;100159.66;5091676;28;20497;-81
2022/10/11 05:33:20;;;;;;;18.50;14.57;;;;;;;14.40;56.21;100232.34;5090044;28;20016;-81
2022/10/11 05:35:46;;;;;;;19.98;13.02;;;;;;;14.48;55.90;100244.72;5091716;28;20024;-81
2022/10/11 05:38:12;;;;;;;18.50;12.73;;;;;;;15.09;55.88;100320.50;5091647;28;20041;-81
2022/10/11 05:40:37;;;;;;;21.10;13.77;;;;;;;14.48;55.54;100226.97;5092374;28;20031;-81
2022/10/11 05:43:03;;;;;;;20.05;14.10;;;;;;;14.91;55.84;100288.19;5092299;28;20051;-81
2022/10/11 05:45:31;;;;;;;18.40;13.38;;;;;;;14.34;55.51;100193.25;5090767;28;20024;-81
2022/10/11 05:47:56;;;;;;;20.25;12.95;;;;;;;15.16;55.78;100324.06;5092170;28;20131;-82
2022/10/11 05:50:21;;;;;;;18.60;13.95;;;;;;;14.89;55.61;100303.50;5092572;28;20158;-81
2022/10/11 05:52:47;;;;;;;20.85;13.93;;;;;;;13.02;55.74;99963.28;5092067;28;20016;-81
2022/10/11 05:55:12;;;;;;;20.73;13.52;;;;;;;14.79;56.01;100233.84;5091841;28;20507;-81
2022/10/11 05:57:38;;;;;;;18.73;13.65;;;;;;;14.62;55.90;100212.81;5075687;28;20032;-81
2022/10/11 06:00:04;;;;;;;16.08;13.93;;;;;;;15.07;56.52;100274.66;5077464;28;20386;-80
2022/10/11 06:02:30;;;;;;;21.13;13.48;;;;;;;15.06;56.21;100266.88;5084682;28;20044;-81
2022/10/11 06:04:55;;;;;;;20.13;14.30;;;;;;;14.77;56.38;100214.59;5080198;28;20026;-80
2022/10/11 06:07:21;;;;;;;23.55;16.60;;;;;;;15.24;56.69;100296.50;5091471;28;20028;-81
2022/10/11 06:09:46;;;;;;;19.35;13.75;;;;;;;15.18;56.53;100282.13;5078079;28;20536;-81
2022/10/11 06:12:12;;;;;;;19.70;13.25;;;;;;;15.53;56.81;100314.19;5081254;28;20514;-81
2022/10/11 06:14:37;;;;;;;20.42;13.73;;;;;;;15.58;56.24;100309.97;5071694;28;20039;-81
2022/10/11 06:17:02;;;;;;;21.90;13.90;;;;;;;15.05;56.53;100214.69;5072692;28;20016;-81
2022/10/11 06:19:28;;;;;;;16.58;13.25;;;;;;;15.65;56.85;100306.56;5078290;28;20420;-81
2022/10/11 06:21:53;;;;;;;19.05;13.45;;;;;;;15.10;56.84;100207.78;5076414;28;20055;-81
2022/10/11 06:24:19;;;;;;;18.20;13.60;;;;;;;15.88;56.89;100342.59;5077872;28;20091;-81
2022/10/11 06:26:44;;;;;;;21.40;12.38;;;;;;;15.19;57.01;100206.63;5088570;28;20071;-81
2022/10/11 06:29:09;;;;;;;22.02;15.13;;;;;;;15.35;57.72;100241.97;5092710;28;20565;-80
2022/10/11 06:31:35;;;;;;;18.52;13.50;;;;;;;14.66;58.33;100127.38;5102631;28;20032;-80
2022/10/11 06:34:00;;;;;;;23.50;15.52;;;;;;;16.00;58.44;100339.41;5095694;28;20020;-81
2022/10/11 06:36:26;;;;;;;20.77;16.38;;;;;;;15.80;58.26;100280.66;5084593;28;20027;-81
2022/10/11 06:38:53;;;;;;;18.20;13.55;;;;;;;16.10;58.70;100326.56;5081371;28;20028;-80
2022/10/11 06:41:26;;;;;;;24.35;12.88;;;;;;;16.05;58.68;100305.00;5082337;28;20532;-81
2022/10/11 06:43:52;;;;;;;22.13;12.68;;;;;;;15.66;58.36;100231.84;5074547;28;20021;-81
2022/10/11 06:46:19;;;;;;;23.20;13.68;;;;;;;16.36;58.41;100326.75;5084435;28;20012;-81
2022/10/11 06:48:46;;;;;;;21.25;13.55;;;;;;;15.19;58.34;100148.13;5090889;28;20099;-80
2022/10/11 06:51:13;;;;;;;18.27;12.27;;;;;;;16.12;58.50;100322.69;5075546;28;20032;-81
2022/10/11 06:53:39;;;;;;;35.10;14.00;;;;;;;15.72;58.42;100211.59;5074904;28;20071;-81
2022/10/11 06:56:07;;;;;;;23.90;12.55;;;;;;;16.01;58.55;100245.16;5075206;28;20024;-81
2022/10/11 06:58:32;;;;;;;19.27;12.38;;;;;;;16.61;58.27;100326.28;5083040;28;20103;-80
2022/10/11 07:01:07;;;;;;;24.52;12.35;;;;;;;16.05;58.39;100225.09;5088587;28;20043;-81
2022/10/11 07:03:33;;;;;;;16.77;12.30;;;;;;;16.74;58.45;100327.19;5090823;28;20020;-81
2022/10/11 07:06:07;;;;;;;25.40;14.07;;;;;;;16.56;58.59;100281.53;5085012;28;20158;-81
2022/10/11 07:08:32;;;;;;;22.13;13.95;;;;;;;16.79;58.40;100321.25;5085573;28;20031;-81
2022/10/11 07:11:03;;;;;;;26.80;13.27;;;;;;;16.96;57.92;100316.38;5082403;28;20044;-81
2022/10/11 07:13:29;;;;;;;23.42;15.32;;;;;;;16.80;57.79;100277.56;5071840;28;20021;-81
2022/10/11 07:15:55;;;;;;;21.08;14.23;;;;;;;17.14;57.74;100312.16;5076834;28;20420;-82
2022/10/11 07:18:21;;;;;;;24.60;15.05;;;;;;;16.86;57.64;100263.41;5073406;28;20492;-81
2022/10/11 07:20:46;;;;;;;24.77;13.38;;;;;;;17.36;57.23;100322.66;5078064;28;20028;-81
2022/10/11 07:23:12;;;;;;;24.08;14.02;;;;;;;17.48;57.27;100323.69;5084447;28;20039;-81
2022/10/11 07:25:37;;;;;;;21.27;15.30;;;;;;;17.26;56.98;100266.19;5089313;28;20512;-81
2022/10/11 07:28:03;;;;;;;17.73;12.73;;;;;;;17.48;57.18;100283.66;5093860;28;20024;-82
2022/10/11 07:30:29;;;;;;;16.90;11.48;;;;;;;17.78;57.46;100340.19;5087173;28;20020;-82
2022/10/11 07:32:54;;;;;;;13.68;8.38;;;;;;;17.08;57.28;100190.19;5079313;28;20335;-81
2022/10/11 07:35:20;;;;;;;10.63;8.32;;;;;;;17.47;57.22;100226.75;5076546;28;20417;-81
2022/10/11 07:37:45;;;;;;;14.10;9.18;;;;;;;17.87;56.75;100287.41;5074040;28;20051;-82
2022/10/11 07:40:10;;;;;;;15.93;8.00;;;;;;;17.43;56.91;100204.19;5079370;28;20016;-82
2022/10/11 07:42:36;;;;;;;18.15;7.97;;;;;;;17.29;56.83;100183.03;5084334;28;20386;-82
2022/10/11 07:45:02;;;;;;;16.77;7.50;;;;;;;17.53;57.04;100217.09;5084160;28;20044;-82
2022/10/11 07:47:27;;;;;;;21.02;7.30;;;;;;;17.38;56.98;100195.16;5077288;28;20043;-81
2022/10/11 07:49:53;;;;;;;13.80;6.90;;;;;;;16.53;57.08;100072.16;5076940;28;20031;-81
2022/10/11 07:52:18;;;;;;;18.65;7.55;;;;;;;17.37;57.35;100214.84;5079618;28;20020;-81
2022/10/11 07:54:43;;;;;;;17.05;7.72;;;;;;;17.55;57.66;100278.31;5088744;28;20043;-82
2022/10/11 07:57:09;;;;;;;12.95;6.32;;;;;;;17.77;57.37;100293.13;5075175;28;20424;-81
2022/10/11 07:59:34;;;;;;;21.80;7.70;;;;;;;17.34;57.28;100199.25;5079865;28;20028;-81
2022/10/11 08:02:00;;;;;;;14.23;7.80;;;;;;;17.44;56.85;100203.16;5079037;28;20093;-80
2022/10/11 08:04:25;;;;;;;13.23;8.05;;;;;;;17.53;56.82;100201.09;5076605;28;20042;-81
2022/10/11 08:06:51;;;;;;;12.35;7.13;;;;;;;17.63;56.70;100201.47;5079012;28;20123;-81
2022/10/11 08:09:16;;;;;;;10.85;7.25;;;;;;;17.83;56.74;100230.88;5082328;28;20625;-81
2022/10/11 08:11:41;;;;;;;10.20;6.72;;;;;;;18.41;56.44;100306.59;5074839;28;20032;-81
2022/10/11 08:14:10;;;;;;;8.55;6.47;;;;;;;18.16;56.35;100259.38;5073768;28;20024;-82
2022/10/11 08:16:37;;;;;;;13.85;9.02;;;;;;;18.43;55.88;100269.78;5082591;28;20029;-81
2022/10/11 08:19:04;;;;;;;14.52;9.85;;;;;;;18.71;55.56;100290.09;5091537;28;20023;-81
2022/10/11 08:21:30;;;;;;;8.50;7.70;;;;;;;18.18;55.02;100194.00;5087792;28;20027;-81
2022/10/11 08:23:56;;;;;;;12.43;6.78;;;;;;;18.11;55.04;100166.47;5081910;28;20025;-81
2022/10/11 08:26:21;;;;;;;9.52;6.97;;;;;;;18.79;54.97;100268.44;5071264;28;20485;-80
2022/10/11 08:28:46;;;;;;;11.50;6.80;;;;;;;18.73;54.63;100247.91;5072223;28;20028;-81
2022/10/11 08:31:13;;;;;;;10.73;7.30;;;;;;;19.04;54.77;100285.38;5082991;28;20028;-81
2022/10/11 08:33:39;;;;;;;14.30;7.70;;;;;;;18.68;54.84;100245.06;5093093;28;20127;-80
2022/10/11 08:36:05;;;;;;;11.40;7.38;;;;;;;19.02;54.69;100292.00;5091403;28;20020;-80
2022/10/11 08:38:31;;;;;;;10.82;6.80;;;;;;;18.44;54.51;100195.72;5083955;28;20028;-81
2022/10/11 08:40:58;;;;;;;10.75;6.93;;;;;;;19.10;54.22;100280.22;5084827;28;20028;-81
2022/10/11 08:43:49;;;;;;;12.65;7.22;;;;;;;18.70;54.23;100224.25;5112316;28;20024;-80
2022/10/11 08:46:22;;;;;;;11.93;7.35;;;;;;;19.12;54.31;100311.09;5112989;28;20099;-81
2022/10/11 08:48:49;;;;;;;9.20;6.70;;;;;;;18.73;54.05;100243.38;5108611;28;20023;-81
2022/10/11 08:51:23;;;;;;;8.73;6.32;;;;;;;19.11;53.87;100298.72;5083231;28;20052;-82
2022/10/11 08:54:11;;;;;;;11.55;6.40;;;;;;;19.14;54.14;100292.13;5073585;28;20020;-81
2022/10/11 08:56:38;;;;;;;10.13;6.40;;;;;;;18.71;53.84;100217.88;5080334;28;20031;-81
2022/10/11 08:59:10;;;;;;;9.88;7.18;;;;;;;19.21;53.94;100287.56;5087482;28;20035;-79
2022/10/11 09:01:39;;;;;;;9.32;7.30;;;;;;;19.30;53.61;100287.06;5084289;28;20048;-81
2022/10/11 09:04:05;;;;;;;9.85;6.15;;;;;;;19.32;53.42;100268.09;5090354;28;20024;-81
2022/10/11 09:06:35;;;;;;;8.48;6.25;;;;;;;19.56;53.23;100283.44;5089683;28;20077;-81
2022/10/11 09:09:39;;;;;;;8.90;6.43;;;;;;;19.79;53.21;100279.31;5070746;28;20043;-80
2022/10/11 09:12:27;;;;;;;12.77;6.90;;;;;;;19.91;52.48;100267.66;5072526;28;20025;-80
2022/10/11 09:15:01;;;;;;;9.90;6.85;;;;;;;20.05;52.27;100267.53;5077409;28;20027;-80
2022/10/11 09:17:59;;;;;;;8.70;5.95;;;;;;;20.13;52.04;100262.72;5088053;28;20493;-80
2022/10/11 09:20:39;;;;;;;11.40;6.32;;;;;;;20.23;51.56;100270.25;5097355;28;20024;-81
2022/10/11 09:23:31;;;;;;;7.65;5.72;;;;;;;19.80;51.38;100201.38;5082863;28;20027;-81
2022/10/11 09:26:12;;;;;;;8.80;6.10;;;;;;;20.00;51.21;100219.94;5074954;28;20158;-81
2022/10/11 09:28:58;;;;;;;10.75;6.80;;;;;;;20.46;50.54;100258.88;5071581;28;20077;-81
2022/10/11 09:31:23;;;;;;;8.55;6.85;;;;;;;19.88;50.67;100160.09;5087317;28;20028;-81
2022/10/11 09:33:51;;;;;;;9.75;7.05;;;;;;;20.70;50.36;100257.13;5075555;28;20088;-80
2022/10/11 09:36:40;;;;;;;9.32;6.43;;;;;;;20.75;49.77;100254.56;5074496;28;20028;-80
2022/10/11 09:39:30;;;;;;;10.60;6.43;;;;;;;20.58;49.60;100214.94;5076944;28;20094;-82
2022/10/11 09:41:58;;;;;;;11.27;8.65;;;;;;;20.82;49.39;100229.31;5083676;28;20102;-80
2022/10/11 09:44:27;;;;;;;10.18;6.53;;;;;;;21.09;48.90;100232.41;5078282;28;20020;-81
2022/10/11 09:46:54;;;;;;;10.70;7.00;;;;;;;21.19;48.73;100245.28;5091877;28;20031;-80
2022/10/11 09:49:24;;;;;;;9.40;6.88;;;;;;;21.29;48.30;100244.75;5084555;28;20129;-80
2022/10/11 09:51:56;;;;;;;10.77;7.43;;;;;;;21.35;48.17;100241.13;5073073;28;20028;-80
2022/10/11 09:54:38;;;;;;;8.77;6.63;;;;;;;21.47;48.08;100245.47;5077825;28;20029;-80
2022/10/11 09:57:03;;;;;;;10.52;7.03;;;;;;;21.01;47.61;100151.38;5078129;28;20051;-79
2022/10/11 09:59:32;;;;;;;8.98;7.57;;;;;;;21.66;47.59;100229.28;5089774;28;20088;-80
2022/10/11 10:02:13;;;;;;;8.82;6.55;;;;;;;21.81;47.28;100225.06;5080684;28;20425;-81
2022/10/11 10:04:59;;;;;;;11.63;9.52;;;;;;;21.89;46.81;100219.31;5091804;28;20031;-81
2022/10/11 10:07:25;;;;;;;8.93;7.18;;;;;;;21.86;47.04;100227.03;5069554;28;20017;-80
2022/10/11 10:09:51;;;;;;;9.75;7.35;;;;;;;21.65;47.02;100224.94;5070939;28;20031;-80
2022/10/11 10:12:25;;;;;;;11.73;7.18;;;;;;;21.46;47.02;100221.53;5071750;28;20170;-80
2022/10/11 10:15:14;;;;;;;10.50;7.10;;;;;;;21.37;47.02;100213.00;5083492;28;20124;-80
2022/10/11 10:17:48;;;;;;;8.50;7.50;;;;;;;21.42;47.25;100221.19;5087621;28;20093;-81
2022/10/11 10:20:21;;;;;;;10.77;6.93;;;;;;;21.06;47.21;100144.28;5073059;28;20033;-82
2022/10/11 10:22:47;;;;;;;9.30;6.97;;;;;;;20.87;47.07;100103.28;5081622;28;20083;-82
2022/10/11 10:25:23;;;;;;;11.05;8.98;;;;;;;20.21;46.85;100004.19;5084582;28;20103;-81
2022/10/11 10:28:00;;;;;;;11.10;6.72;;;;;;;21.52;46.76;100183.78;5085873;28;20027;-82
2022/10/11 10:30:27;;;;;;;15.15;13.10;;;;;;;20.91;46.59;100082.97;5074346;28;20497;-81
2022/10/11 10:33:05;;;;;;;8.52;6.80;;;;;;;21.46;45.52;100120.25;5077534;28;20025;-81
2022/10/11 10:35:45;;;;;;;8.57;7.15;;;;;;;21.42;45.93;100107.53;5096303;28;20030;-80
2022/10/11 10:38:39;;;;;;;9.77;8.07;;;;;;;22.07;45.59;100194.19;5085992;28;20081;-81
2022/10/11 10:41:09;;;;;;;7.85;6.22;;;;;;;21.94;45.72;100207.03;5069790;28;20027;-81
2022/10/11 10:43:37;;;;;;;9.00;8.10;;;;;;;21.95;45.98;100188.00;5075452;28;20024;-81
2022/10/11 10:46:21;;;;;;;12.18;8.25;;;;;;;21.69;45.68;100151.69;5071721;28;20076;-81
2022/10/11 10:48:55;;;;;;;6.93;6.25;;;;;;;22.01;45.70;100187.03;5074322;28;20031;-80
2022/10/11 10:51:34;;;;;;;6.95;6.20;;;;;;;22.09;45.49;100186.69;5087238;28;20564;-81
2022/10/11 10:54:30;;;;;;;7.72;6.78;;;;;;;21.57;45.28;100091.75;5076831;28;20030;-81
2022/10/11 10:56:59;;;;;;;7.70;6.90;;;;;;;22.12;45.30;100180.84;5077114;28;20131;-81
2022/10/11 10:59:40;;;;;;;10.50;8.88;;;;;;;22.15;45.32;100174.16;5090865;28;20032;-81
2022/10/11 11:02:32;;;;;;;8.13;7.07;;;;;;;22.12;44.80;100170.09;5088125;28;20051;-82
2022/10/11 11:05:15;;;;;;;11.32;8.75;;;;;;;22.10;44.77;100177.56;5107215;28;20028;-81
2022/10/11 11:08:01;;;;;;;12.55;8.57;;;;;;;22.05;44.58;100166.72;5092973;28;20142;-81
2022/10/11 11:10:39;;;;;;;8.75;7.85;;;;;;;21.38;45.01;100074.94;5074381;28;20021;-82
2022/10/11 11:13:37;;;;;;;7.68;6.03;;;;;;;21.69;44.61;100129.38;5074229;28;20024;-80
2022/10/11 11:16:10;;;;;;;6.55;5.55;;;;;;;21.78;45.20;100157.50;5083506;28;20114;-81
2022/10/11 11:18:45;;;;;;;9.35;7.28;;;;;;;21.75;45.17;100144.53;5086263;28;20118;-79
2022/10/11 11:21:43;;;;;;;11.43;8.00;;;;;;;21.21;45.07;100069.44;5074431;28;20142;-80
2022/10/11 11:24:30;;;;;;;7.00;6.00;;;;;;;21.68;45.38;100150.03;5092534;28;20036;-81
2022/10/11 11:27:01;;;;;;;7.55;5.97;;;;;;;21.60;45.30;100146.91;5076718;28;20067;-80
2022/10/11 11:29:32;;;;;;;8.27;5.88;;;;;;;21.47;45.30;100147.94;5072843;28;20036;-81